sensor_id;sensor_type;location;lat;lon;timestamp;pressure;altitude;pressure_sealevel;temperature;humidity
6144;BME280;3103;49.492;8.474;2023-03-03T00:00:06;100833.72;;;6.55;61.18
6144;BME280;3103;49.492;8.474;2023-03-03T00:02:39;100842.34;;;6.50;61.31
6144;BME280;3103;49.492;8.474;2023-03-03T00:05:06;100838.25;;;6.48;61.37
6144;BME280;3103;49.492;8.474;2023-03-03T00:07:33;100831.09;;;6.62;60.69
6144;BME280;3103;49.492;8.474;2023-03-03T00:10:00;100830.63;;;6.58;60.21
6144;BME280;3103;49.492;8.474;2023-03-03T00:12:30;100834.34;;;6.50;60.98
6144;BME280;3103;49.492;8.474;2023-03-03T00:14:57;100838.22;;;6.41;60.90
6144;BME280;3103;49.492;8.474;2023-03-03T00:17:26;100844.78;;;6.45;60.46
6144;BME280;3103;49.492;8.474;2023-03-03T00:19:54;100839.03;;;6.42;60.93
6144;BME280;3103;49.492;8.474;2023-03-03T00:22:34;100839.25;;;6.34;61.20
6144;BME280;3103;49.492;8.474;2023-03-03T00:27:47;100841.75;;;6.48;60.81
6144;BME280;3103;49.492;8.474;2023-03-03T00:30:23;100845.00;;;6.44;60.62
6144;BME280;3103;49.492;8.474;2023-03-03T00:32:51;100850.75;;;6.34;61.38
6144;BME280;3103;49.492;8.474;2023-03-03T00:35:30;100855.25;;;6.34;61.04
6144;BME280;3103;49.492;8.474;2023-03-03T00:38:10;100851.34;;;6.36;61.06
6144;BME280;3103;49.492;8.474;2023-03-03T00:40:39;100853.16;;;6.29;61.67
6144;BME280;3103;49.492;8.474;2023-03-03T00:43:23;100851.31;;;6.23;61.90
6144;BME280;3103;49.492;8.474;2023-03-03T00:45:52;100852.50;;;6.14;63.07
6144;BME280;3103;49.492;8.474;2023-03-03T00:48:21;100855.94;;;6.01;64.14
6144;BME280;3103;49.492;8.474;2023-03-03T00:50:49;100847.56;;;6.11;63.73
6144;BME280;3103;49.492;8.474;2023-03-03T00:53:17;100848.41;;;6.11;62.81
6144;BME280;3103;49.492;8.474;2023-03-03T00:55:46;100853.97;;;6.23;61.41
6144;BME280;3103;49.492;8.474;2023-03-03T00:58:14;100854.56;;;6.18;62.57
6144;BME280;3103;49.492;8.474;2023-03-03T01:00:43;100852.91;;;6.17;62.60
6144;BME280;3103;49.492;8.474;2023-03-03T01:03:16;100864.44;;;6.24;61.70
6144;BME280;3103;49.492;8.474;2023-03-03T01:05:44;100858.28;;;6.24;61.38
6144;BME280;3103;49.492;8.474;2023-03-03T01:08:11;100854.34;;;6.07;61.53
6144;BME280;3103;49.492;8.474;2023-03-03T01:10:42;100856.81;;;6.08;61.44
6144;BME280;3103;49.492;8.474;2023-03-03T01:13:10;100854.97;;;6.09;61.25
6144;BME280;3103;49.492;8.474;2023-03-03T01:15:38;100857.84;;;6.07;60.85
6144;BME280;3103;49.492;8.474;2023-03-03T01:18:06;100861.69;;;6.05;60.07
6144;BME280;3103;49.492;8.474;2023-03-03T01:20:33;100855.31;;;5.92;61.50
6144;BME280;3103;49.492;8.474;2023-03-03T01:23:00;100856.88;;;5.87;62.35
6144;BME280;3103;49.492;8.474;2023-03-03T01:25:27;100857.69;;;5.87;62.45
6144;BME280;3103;49.492;8.474;2023-03-03T01:27:54;100856.34;;;5.91;62.22
6144;BME280;3103;49.492;8.474;2023-03-03T01:30:22;100853.66;;;5.91;61.94
6144;BME280;3103;49.492;8.474;2023-03-03T01:32:48;100853.56;;;5.78;62.75
6144;BME280;3103;49.492;8.474;2023-03-03T01:35:15;100857.63;;;5.74;63.23
6144;BME280;3103;49.492;8.474;2023-03-03T01:37:42;100861.13;;;5.75;62.87
6144;BME280;3103;49.492;8.474;2023-03-03T01:40:19;100858.03;;;5.71;63.02
6144;BME280;3103;49.492;8.474;2023-03-03T01:42:46;100852.91;;;5.76;62.48
6144;BME280;3103;49.492;8.474;2023-03-03T01:45:24;100848.19;;;5.72;62.24
6144;BME280;3103;49.492;8.474;2023-03-03T01:50:45;100845.50;;;5.65;61.26
6144;BME280;3103;49.492;8.474;2023-03-03T01:53:17;100849.97;;;5.58;60.09
6144;BME280;3103;49.492;8.474;2023-03-03T01:55:46;100845.44;;;5.58;59.10
6144;BME280;3103;49.492;8.474;2023-03-03T01:58:22;100845.44;;;5.58;57.73
6144;BME280;3103;49.492;8.474;2023-03-03T02:01:00;100849.81;;;5.66;56.32
6144;BME280;3103;49.492;8.474;2023-03-03T02:03:28;100846.28;;;5.59;56.78
6144;BME280;3103;49.492;8.474;2023-03-03T02:05:59;100843.59;;;5.52;56.01
6144;BME280;3103;49.492;8.474;2023-03-03T02:08:38;100833.75;;;5.53;55.90
6144;BME280;3103;49.492;8.474;2023-03-03T02:11:09;100836.16;;;5.48;55.88
6144;BME280;3103;49.492;8.474;2023-03-03T02:13:36;100840.47;;;5.49;53.79
6144;BME280;3103;49.492;8.474;2023-03-03T02:16:03;100833.56;;;5.61;52.88
6144;BME280;3103;49.492;8.474;2023-03-03T02:18:30;100834.50;;;5.47;52.85
6144;BME280;3103;49.492;8.474;2023-03-03T02:21:03;100838.69;;;5.56;52.06
6144;BME280;3103;49.492;8.474;2023-03-03T02:26:23;100830.88;;;5.54;51.91
6144;BME280;3103;49.492;8.474;2023-03-03T02:28:55;100839.47;;;5.50;52.47
6144;BME280;3103;49.492;8.474;2023-03-03T02:31:24;100847.84;;;5.47;53.02
6144;BME280;3103;49.492;8.474;2023-03-03T02:33:53;100844.72;;;5.36;53.37
6144;BME280;3103;49.492;8.474;2023-03-03T02:36:26;100839.94;;;5.25;53.39
6144;BME280;3103;49.492;8.474;2023-03-03T02:39:04;100843.56;;;5.18;53.17
6144;BME280;3103;49.492;8.474;2023-03-03T02:44:07;100838.41;;;5.16;53.71
6144;BME280;3103;49.492;8.474;2023-03-03T02:46:37;100847.59;;;5.35;53.15
6144;BME280;3103;49.492;8.474;2023-03-03T02:49:06;100844.00;;;4.72;54.08
6144;BME280;3103;49.492;8.474;2023-03-03T02:51:34;100838.38;;;5.10;53.32
6144;BME280;3103;49.492;8.474;2023-03-03T02:54:01;100848.31;;;5.22;52.24
6144;BME280;3103;49.492;8.474;2023-03-03T02:56:31;100845.16;;;5.12;51.94
6144;BME280;3103;49.492;8.474;2023-03-03T02:58:58;100846.28;;;5.24;52.02
6144;BME280;3103;49.492;8.474;2023-03-03T03:01:26;100841.09;;;5.16;52.05
6144;BME280;3103;49.492;8.474;2023-03-03T03:03:53;100841.19;;;5.01;52.52
6144;BME280;3103;49.492;8.474;2023-03-03T03:06:21;100838.31;;;5.03;51.37
6144;BME280;3103;49.492;8.474;2023-03-03T03:08:48;100841.13;;;4.95;51.21
6144;BME280;3103;49.492;8.474;2023-03-03T03:11:15;100843.53;;;5.11;50.49
6144;BME280;3103;49.492;8.474;2023-03-03T03:13:42;100842.63;;;5.04;50.14
6144;BME280;3103;49.492;8.474;2023-03-03T03:16:08;100849.03;;;5.10;50.13
6144;BME280;3103;49.492;8.474;2023-03-03T03:18:35;100846.41;;;5.16;50.05
6144;BME280;3103;49.492;8.474;2023-03-03T03:21:10;100839.13;;;5.03;50.76
6144;BME280;3103;49.492;8.474;2023-03-03T03:23:39;100839.22;;;5.10;51.28
6144;BME280;3103;49.492;8.474;2023-03-03T03:26:07;100835.91;;;5.08;51.08
6144;BME280;3103;49.492;8.474;2023-03-03T03:28:35;100836.97;;;4.86;51.74
6144;BME280;3103;49.492;8.474;2023-03-03T03:31:03;100836.69;;;5.02;51.05
6144;BME280;3103;49.492;8.474;2023-03-03T03:33:33;100843.66;;;5.03;50.72
6144;BME280;3103;49.492;8.474;2023-03-03T03:36:00;100855.22;;;4.89;50.44
6144;BME280;3103;49.492;8.474;2023-03-03T03:38:27;100855.47;;;4.94;50.07
6144;BME280;3103;49.492;8.474;2023-03-03T03:40:55;100851.63;;;5.03;49.79
6144;BME280;3103;49.492;8.474;2023-03-03T03:43:22;100852.16;;;4.92;49.96
6144;BME280;3103;49.492;8.474;2023-03-03T03:45:48;100845.47;;;4.74;50.32
6144;BME280;3103;49.492;8.474;2023-03-03T03:48:16;100855.16;;;4.82;50.85
6144;BME280;3103;49.492;8.474;2023-03-03T03:50:47;100846.75;;;4.79;51.05
6144;BME280;3103;49.492;8.474;2023-03-03T03:53:15;100840.44;;;4.86;51.23
6144;BME280;3103;49.492;8.474;2023-03-03T03:55:43;100846.75;;;4.79;51.18
6144;BME280;3103;49.492;8.474;2023-03-03T03:58:15;100858.72;;;4.68;51.83
6144;BME280;3103;49.492;8.474;2023-03-03T04:00:47;100862.19;;;4.68;52.30
6144;BME280;3103;49.492;8.474;2023-03-03T04:03:15;100860.03;;;4.57;52.41
6144;BME280;3103;49.492;8.474;2023-03-03T04:05:44;100860.06;;;4.79;51.72
6144;BME280;3103;49.492;8.474;2023-03-03T04:08:12;100861.38;;;4.68;52.12
6144;BME280;3103;49.492;8.474;2023-03-03T04:10:41;100859.41;;;4.76;52.84
6144;BME280;3103;49.492;8.474;2023-03-03T04:13:08;100857.03;;;4.88;52.91
6144;BME280;3103;49.492;8.474;2023-03-03T04:15:35;100859.41;;;4.76;53.09
6144;BME280;3103;49.492;8.474;2023-03-03T04:18:02;100858.34;;;4.71;53.29
6144;BME280;3103;49.492;8.474;2023-03-03T04:20:29;100858.38;;;4.77;53.11
6144;BME280;3103;49.492;8.474;2023-03-03T04:22:57;100858.53;;;4.69;53.34
6144;BME280;3103;49.492;8.474;2023-03-03T04:25:24;100855.03;;;4.69;53.95
6144;BME280;3103;49.492;8.474;2023-03-03T04:27:52;100862.59;;;4.65;53.78
6144;BME280;3103;49.492;8.474;2023-03-03T04:30:21;100856.09;;;4.74;53.54
6144;BME280;3103;49.492;8.474;2023-03-03T04:32:51;100860.91;;;4.64;54.33
6144;BME280;3103;49.492;8.474;2023-03-03T04:35:21;100854.97;;;4.41;54.99
6144;BME280;3103;49.492;8.474;2023-03-03T04:37:48;100853.94;;;4.42;55.00
6144;BME280;3103;49.492;8.474;2023-03-03T04:40:15;100853.81;;;4.50;54.84
6144;BME280;3103;49.492;8.474;2023-03-03T04:42:46;100857.97;;;4.53;54.65
6144;BME280;3103;49.492;8.474;2023-03-03T04:45:13;100861.03;;;4.35;55.20
6144;BME280;3103;49.492;8.474;2023-03-03T04:47:40;100866.50;;;4.48;55.22
6144;BME280;3103;49.492;8.474;2023-03-03T04:50:09;100873.47;;;4.49;55.23
6144;BME280;3103;49.492;8.474;2023-03-03T04:52:36;100861.53;;;4.24;56.10
6144;BME280;3103;49.492;8.474;2023-03-03T04:55:05;100872.00;;;4.25;56.56
6144;BME280;3103;49.492;8.474;2023-03-03T04:57:37;100881.47;;;4.34;56.78
6144;BME280;3103;49.492;8.474;2023-03-03T05:00:04;100875.03;;;4.43;56.95
6144;BME280;3103;49.492;8.474;2023-03-03T05:02:32;100876.13;;;4.49;56.98
6144;BME280;3103;49.492;8.474;2023-03-03T05:05:00;100876.19;;;4.56;57.07
6144;BME280;3103;49.492;8.474;2023-03-03T05:07:28;100885.41;;;4.53;57.20
6144;BME280;3103;49.492;8.474;2023-03-03T05:09:55;100886.75;;;4.28;57.90
6144;BME280;3103;49.492;8.474;2023-03-03T05:12:21;100885.94;;;4.12;58.92
6144;BME280;3103;49.492;8.474;2023-03-03T05:14:48;100888.78;;;4.26;58.72
6144;BME280;3103;49.492;8.474;2023-03-03T05:17:15;100889.78;;;4.25;58.70
6144;BME280;3103;49.492;8.474;2023-03-03T05:19:42;100895.97;;;4.10;60.18
6144;BME280;3103;49.492;8.474;2023-03-03T05:22:08;100898.22;;;4.28;59.58
6144;BME280;3103;49.492;8.474;2023-03-03T05:24:35;100897.97;;;4.23;60.17
6144;BME280;3103;49.492;8.474;2023-03-03T05:27:02;100897.75;;;4.25;60.41
6144;BME280;3103;49.492;8.474;2023-03-03T05:29:29;100904.25;;;4.37;59.93
6144;BME280;3103;49.492;8.474;2023-03-03T05:31:57;100906.00;;;4.30;60.02
6144;BME280;3103;49.492;8.474;2023-03-03T05:34:24;100907.75;;;4.37;60.44
6144;BME280;3103;49.492;8.474;2023-03-03T05:36:50;100911.94;;;4.32;60.49
6144;BME280;3103;49.492;8.474;2023-03-03T05:39:17;100907.06;;;3.99;61.48
6144;BME280;3103;49.492;8.474;2023-03-03T05:41:44;100902.81;;;4.05;62.17
6144;BME280;3103;49.492;8.474;2023-03-03T05:44:11;100908.13;;;4.05;62.05
6144;BME280;3103;49.492;8.474;2023-03-03T05:46:38;100918.94;;;4.18;61.43
6144;BME280;3103;49.492;8.474;2023-03-03T05:49:05;100920.91;;;4.09;61.93
6144;BME280;3103;49.492;8.474;2023-03-03T05:51:31;100920.41;;;4.21;61.86
6144;BME280;3103;49.492;8.474;2023-03-03T05:53:58;100924.72;;;4.22;61.80
6144;BME280;3103;49.492;8.474;2023-03-03T05:56:25;100933.06;;;4.18;62.20
6144;BME280;3103;49.492;8.474;2023-03-03T05:58:51;100933.25;;;4.17;61.99
6144;BME280;3103;49.492;8.474;2023-03-03T06:01:18;100931.25;;;4.04;62.74
6144;BME280;3103;49.492;8.474;2023-03-03T06:03:45;100924.72;;;4.07;62.71
6144;BME280;3103;49.492;8.474;2023-03-03T06:06:11;100925.56;;;4.07;62.43
6144;BME280;3103;49.492;8.474;2023-03-03T06:08:39;100929.69;;;4.10;62.13
6144;BME280;3103;49.492;8.474;2023-03-03T06:11:06;100933.06;;;4.18;62.14
6144;BME280;3103;49.492;8.474;2023-03-03T06:13:33;100929.91;;;4.08;62.14
6144;BME280;3103;49.492;8.474;2023-03-03T06:15:59;100920.06;;;4.24;61.72
6144;BME280;3103;49.492;8.474;2023-03-03T06:18:26;100924.66;;;4.00;61.99
6144;BME280;3103;49.492;8.474;2023-03-03T06:20:53;100925.47;;;4.15;61.57
6144;BME280;3103;49.492;8.474;2023-03-03T06:23:20;100929.78;;;4.16;61.83
6144;BME280;3103;49.492;8.474;2023-03-03T06:25:47;100929.78;;;4.02;62.35
6144;BME280;3103;49.492;8.474;2023-03-03T06:28:14;100940.53;;;4.08;62.20
6144;BME280;3103;49.492;8.474;2023-03-03T06:30:40;100933.34;;;4.24;62.14
6144;BME280;3103;49.492;8.474;2023-03-03T06:33:07;100938.84;;;4.22;61.89
6144;BME280;3103;49.492;8.474;2023-03-03T06:35:34;100943.06;;;4.16;61.93
6144;BME280;3103;49.492;8.474;2023-03-03T06:38:01;100940.66;;;4.22;62.21
6144;BME280;3103;49.492;8.474;2023-03-03T06:40:28;100954.31;;;4.33;61.55
6144;BME280;3103;49.492;8.474;2023-03-03T06:42:54;100952.69;;;4.32;62.03
6144;BME280;3103;49.492;8.474;2023-03-03T06:45:21;100956.72;;;4.43;62.17
6144;BME280;3103;49.492;8.474;2023-03-03T06:47:48;100960.38;;;4.42;62.36
6144;BME280;3103;49.492;8.474;2023-03-03T06:50:17;100967.97;;;4.45;62.46
6144;BME280;3103;49.492;8.474;2023-03-03T06:52:45;100980.28;;;4.46;62.50
6144;BME280;3103;49.492;8.474;2023-03-03T06:55:18;100992.22;;;4.35;63.31
6144;BME280;3103;49.492;8.474;2023-03-03T06:57:47;100992.75;;;4.45;63.02
6144;BME280;3103;49.492;8.474;2023-03-03T07:00:19;101001.75;;;4.44;63.84
6144;BME280;3103;49.492;8.474;2023-03-03T07:02:59;100999.25;;;4.58;63.07
6144;BME280;3103;49.492;8.474;2023-03-03T07:05:27;100993.56;;;4.46;63.19
6144;BME280;3103;49.492;8.474;2023-03-03T07:07:55;100996.25;;;4.46;62.85
6144;BME280;3103;49.492;8.474;2023-03-03T07:10:27;100999.97;;;4.66;62.49
6144;BME280;3103;49.492;8.474;2023-03-03T07:13:07;101004.53;;;4.72;62.44
6144;BME280;3103;49.492;8.474;2023-03-03T07:15:39;101000.72;;;4.60;62.71
6144;BME280;3103;49.492;8.474;2023-03-03T07:18:22;101000.72;;;4.45;62.68
6144;BME280;3103;49.492;8.474;2023-03-03T07:20:50;101000.50;;;4.76;61.85
6144;BME280;3103;49.492;8.474;2023-03-03T07:23:23;101002.13;;;4.77;61.74
6144;BME280;3103;49.492;8.474;2023-03-03T07:25:51;101003.56;;;4.95;61.32
6144;BME280;3103;49.492;8.474;2023-03-03T07:28:28;101008.50;;;5.19;60.44
6144;BME280;3103;49.492;8.474;2023-03-03T07:30:56;101011.47;;;5.24;59.86
6144;BME280;3103;49.492;8.474;2023-03-03T07:33:30;101010.50;;;5.32;59.92
6144;BME280;3103;49.492;8.474;2023-03-03T07:36:01;101022.03;;;5.39;60.05
6144;BME280;3103;49.492;8.474;2023-03-03T07:38:30;101019.94;;;5.56;59.23
6144;BME280;3103;49.492;8.474;2023-03-03T07:41:02;101023.22;;;5.58;59.25
6144;BME280;3103;49.492;8.474;2023-03-03T07:48:37;101036.28;;;5.95;57.77
6144;BME280;3103;49.492;8.474;2023-03-03T07:51:14;101033.72;;;5.87;58.78
6144;BME280;3103;49.492;8.474;2023-03-03T07:53:44;101042.09;;;6.06;58.33
6144;BME280;3103;49.492;8.474;2023-03-03T07:56:21;101043.50;;;6.02;58.36
6144;BME280;3103;49.492;8.474;2023-03-03T07:58:52;101040.06;;;6.08;58.29
6144;BME280;3103;49.492;8.474;2023-03-03T08:01:34;101032.13;;;6.21;57.97
6144;BME280;3103;49.492;8.474;2023-03-03T08:04:15;101036.66;;;6.20;57.64
6144;BME280;3103;49.492;8.474;2023-03-03T08:06:54;101045.94;;;6.31;57.39
6144;BME280;3103;49.492;8.474;2023-03-03T08:12:30;101053.56;;;6.34;58.24
6144;BME280;3103;49.492;8.474;2023-03-03T08:15:31;101058.56;;;6.16;58.42
6144;BME280;3103;49.492;8.474;2023-03-03T08:18:01;101064.81;;;6.30;59.06
6144;BME280;3103;49.492;8.474;2023-03-03T08:20:43;101066.13;;;6.40;59.00
6144;BME280;3103;49.492;8.474;2023-03-03T08:23:13;101061.00;;;6.45;58.53
6144;BME280;3103;49.492;8.474;2023-03-03T08:25:40;101068.50;;;6.29;58.53
6144;BME280;3103;49.492;8.474;2023-03-03T08:28:09;101070.34;;;6.63;57.39
6144;BME280;3103;49.492;8.474;2023-03-03T08:30:35;101072.44;;;6.74;57.82
6144;BME280;3103;49.492;8.474;2023-03-03T08:33:02;101076.53;;;6.70;57.08
6144;BME280;3103;49.492;8.474;2023-03-03T08:35:29;101081.38;;;7.01;57.00
6144;BME280;3103;49.492;8.474;2023-03-03T08:37:57;101066.84;;;7.17;56.33
6144;BME280;3103;49.492;8.474;2023-03-03T08:40:24;101071.75;;;7.06;57.06
6144;BME280;3103;49.492;8.474;2023-03-03T08:42:50;101072.44;;;7.28;56.09
6144;BME280;3103;49.492;8.474;2023-03-03T08:45:17;101071.38;;;7.16;57.15
6144;BME280;3103;49.492;8.474;2023-03-03T08:47:44;101073.25;;;7.29;57.24
6144;BME280;3103;49.492;8.474;2023-03-03T08:50:11;101069.53;;;7.23;56.66
6144;BME280;3103;49.492;8.474;2023-03-03T08:52:38;101068.13;;;7.40;57.28
6144;BME280;3103;49.492;8.474;2023-03-03T08:55:06;101069.78;;;7.35;56.84
6144;BME280;3103;49.492;8.474;2023-03-03T08:57:34;101068.34;;;7.39;57.00
6144;BME280;3103;49.492;8.474;2023-03-03T09:00:01;101062.72;;;7.07;57.18
6144;BME280;3103;49.492;8.474;2023-03-03T09:02:28;101070.28;;;6.91;58.28
6144;BME280;3103;49.492;8.474;2023-03-03T09:04:55;101081.47;;;7.27;57.56
6144;BME280;3103;49.492;8.474;2023-03-03T09:07:22;101084.66;;;7.77;57.69
6144;BME280;3103;49.492;8.474;2023-03-03T09:09:48;101083.81;;;8.03;56.36
6144;BME280;3103;49.492;8.474;2023-03-03T09:12:18;101080.13;;;8.04;54.09
6144;BME280;3103;49.492;8.474;2023-03-03T09:14:49;101082.38;;;8.07;53.61
6144;BME280;3103;49.492;8.474;2023-03-03T09:17:31;101081.88;;;9.52;49.02
6144;BME280;3103;49.492;8.474;2023-03-03T09:20:14;101084.53;;;10.34;46.41
6144;BME280;3103;49.492;8.474;2023-03-03T09:22:43;101090.34;;;11.76;42.75
6144;BME280;3103;49.492;8.474;2023-03-03T09:25:20;101095.44;;;12.66;40.73
6144;BME280;3103;49.492;8.474;2023-03-03T09:27:47;101093.59;;;12.08;40.83
6144;BME280;3103;49.492;8.474;2023-03-03T09:30:37;101091.97;;;12.30;40.92
6144;BME280;3103;49.492;8.474;2023-03-03T09:33:27;101087.84;;;12.04;41.57
6144;BME280;3103;49.492;8.474;2023-03-03T09:36:40;101100.19;;;13.39;38.54
6144;BME280;3103;49.492;8.474;2023-03-03T09:38:47;101092.41;;;12.51;39.80
6144;BME280;3103;49.492;8.474;2023-03-03T09:41:18;101098.50;;;12.34;39.74
6144;BME280;3103;49.492;8.474;2023-03-03T09:46:39;101089.44;;;9.62;47.49
6144;BME280;3103;49.492;8.474;2023-03-03T09:50:06;101089.78;;;9.41;48.47
6144;BME280;3103;49.492;8.474;2023-03-03T09:52:21;101088.91;;;9.09;49.71
6144;BME280;3103;49.492;8.474;2023-03-03T09:55:09;101086.91;;;9.04;50.29
6144;BME280;3103;49.492;8.474;2023-03-03T09:58:10;101090.59;;;9.03;50.21
6144;BME280;3103;49.492;8.474;2023-03-03T10:04:03;101093.91;;;8.99;50.92
6144;BME280;3103;49.492;8.474;2023-03-03T10:06:44;101096.41;;;8.93;51.27
6144;BME280;3103;49.492;8.474;2023-03-03T10:12:28;101104.88;;;8.90;50.55
6144;BME280;3103;49.492;8.474;2023-03-03T10:21:10;101104.72;;;8.79;51.53
6144;BME280;3103;49.492;8.474;2023-03-03T10:24:05;101111.50;;;8.88;52.06
6144;BME280;3103;49.492;8.474;2023-03-03T10:26:50;101108.00;;;8.81;51.73
6144;BME280;3103;49.492;8.474;2023-03-03T10:32:39;101117.13;;;8.67;52.30
6144;BME280;3103;49.492;8.474;2023-03-03T10:35:17;101116.28;;;8.66;51.94
6144;BME280;3103;49.492;8.474;2023-03-03T10:40:51;101102.69;;;8.74;52.03
6144;BME280;3103;49.492;8.474;2023-03-03T10:49:18;101102.94;;;9.11;50.52
6144;BME280;3103;49.492;8.474;2023-03-03T11:03:30;101106.44;;;9.49;49.97
6144;BME280;3103;49.492;8.474;2023-03-03T11:09:09;101101.59;;;9.65;48.64
6144;BME280;3103;49.492;8.474;2023-03-03T11:14:42;101107.75;;;9.72;48.30
6144;BME280;3103;49.492;8.474;2023-03-03T11:17:37;101105.16;;;9.59;49.00
6144;BME280;3103;49.492;8.474;2023-03-03T11:20:45;101100.53;;;9.72;49.22
6144;BME280;3103;49.492;8.474;2023-03-03T11:23:41;101100.78;;;9.64;48.43
6144;BME280;3103;49.492;8.474;2023-03-03T11:31:45;101094.44;;;9.59;49.28
6144;BME280;3103;49.492;8.474;2023-03-03T11:34:43;101087.16;;;9.28;50.48
6144;BME280;3103;49.492;8.474;2023-03-03T11:39:44;101095.97;;;9.73;50.49
6144;BME280;3103;49.492;8.474;2023-03-03T11:44:51;101095.47;;;9.58;54.22
6144;BME280;3103;49.492;8.474;2023-03-03T11:47:39;101082.56;;;9.73;53.30
6144;BME280;3103;49.492;8.474;2023-03-03T11:50:12;101079.16;;;9.59;49.63
6144;BME280;3103;49.492;8.474;2023-03-03T11:52:51;101074.53;;;9.66;50.43
6144;BME280;3103;49.492;8.474;2023-03-03T11:55:37;101071.88;;;9.35;49.83
6144;BME280;3103;49.492;8.474;2023-03-03T11:58:13;101069.22;;;9.28;50.01
6144;BME280;3103;49.492;8.474;2023-03-03T12:20:14;101064.00;;;9.71;49.00
6144;BME280;3103;49.492;8.474;2023-03-03T12:23:03;101055.88;;;9.78;48.88
6144;BME280;3103;49.492;8.474;2023-03-03T12:25:40;101057.28;;;10.30;54.34
6144;BME280;3103;49.492;8.474;2023-03-03T12:28:30;101055.31;;;9.94;46.96
6144;BME280;3103;49.492;8.474;2023-03-03T12:31:27;101045.91;;;9.85;49.43
6144;BME280;3103;49.492;8.474;2023-03-03T12:34:04;101043.06;;;9.80;47.46
6144;BME280;3103;49.492;8.474;2023-03-03T12:39:52;101032.88;;;9.64;48.91
6144;BME280;3103;49.492;8.474;2023-03-03T12:47:58;101030.78;;;9.66;47.24
6144;BME280;3103;49.492;8.474;2023-03-03T12:50:41;101024.44;;;9.60;48.68
6144;BME280;3103;49.492;8.474;2023-03-03T12:53:31;101016.00;;;9.57;48.68
6144;BME280;3103;49.492;8.474;2023-03-03T12:56:08;101018.41;;;9.65;49.15
6144;BME280;3103;49.492;8.474;2023-03-03T12:59:08;101015.25;;;9.74;52.46
6144;BME280;3103;49.492;8.474;2023-03-03T13:07:25;101007.00;;;10.37;52.38
6144;BME280;3103;49.492;8.474;2023-03-03T13:13:08;101006.13;;;10.00;47.60
6144;BME280;3103;49.492;8.474;2023-03-03T13:15:52;101006.75;;;9.77;48.92
6144;BME280;3103;49.492;8.474;2023-03-03T13:18:47;101004.63;;;9.86;48.67
6144;BME280;3103;49.492;8.474;2023-03-03T13:23:59;101012.38;;;9.69;48.91
6144;BME280;3103;49.492;8.474;2023-03-03T13:26:35;101004.19;;;9.89;49.17
6144;BME280;3103;49.492;8.474;2023-03-03T13:29:10;101003.19;;;9.83;48.37
6144;BME280;3103;49.492;8.474;2023-03-03T13:35:07;100996.56;;;9.86;48.69
6144;BME280;3103;49.492;8.474;2023-03-03T13:37:38;100997.09;;;9.95;49.00
6144;BME280;3103;49.492;8.474;2023-03-03T13:42:43;101003.22;;;10.02;49.22
6144;BME280;3103;49.492;8.474;2023-03-03T13:48:22;100994.38;;;10.20;49.18
6144;BME280;3103;49.492;8.474;2023-03-03T13:51:03;100987.03;;;10.08;47.89
6144;BME280;3103;49.492;8.474;2023-03-03T13:53:41;100985.72;;;10.18;47.13
6144;BME280;3103;49.492;8.474;2023-03-03T14:07:41;100967.38;;;10.51;46.44
6144;BME280;3103;49.492;8.474;2023-03-03T14:10:29;100968.41;;;10.50;45.98
6144;BME280;3103;49.492;8.474;2023-03-03T14:13:19;100958.41;;;10.57;45.69
6144;BME280;3103;49.492;8.474;2023-03-03T14:19:09;100963.75;;;10.76;46.20
6144;BME280;3103;49.492;8.474;2023-03-03T14:21:16;100958.97;;;10.78;44.82
6144;BME280;3103;49.492;8.474;2023-03-03T14:24:00;100946.56;;;10.77;45.08
6144;BME280;3103;49.492;8.474;2023-03-03T14:26:27;100946.56;;;10.77;45.33
6144;BME280;3103;49.492;8.474;2023-03-03T14:29:18;100945.66;;;10.83;43.99
6144;BME280;3103;49.492;8.474;2023-03-03T14:31:45;100946.97;;;10.92;44.11
6144;BME280;3103;49.492;8.474;2023-03-03T14:34:25;100946.66;;;11.00;43.61
6144;BME280;3103;49.492;8.474;2023-03-03T14:37:21;100945.72;;;11.06;43.96
6144;BME280;3103;49.492;8.474;2023-03-03T14:45:32;100946.38;;;11.32;42.77
6144;BME280;3103;49.492;8.474;2023-03-03T14:48:09;100947.69;;;11.41;43.74
6144;BME280;3103;49.492;8.474;2023-03-03T14:50:39;100948.59;;;11.35;42.55
6144;BME280;3103;49.492;8.474;2023-03-03T14:53:14;100945.44;;;11.38;43.10
6144;BME280;3103;49.492;8.474;2023-03-03T14:55:51;100942.66;;;11.44;42.89
6144;BME280;3103;49.492;8.474;2023-03-03T15:03:47;100939.16;;;11.79;41.72
6144;BME280;3103;49.492;8.474;2023-03-03T15:06:29;100944.41;;;11.74;41.69
6144;BME280;3103;49.492;8.474;2023-03-03T15:09:19;100945.81;;;11.76;41.55
6144;BME280;3103;49.492;8.474;2023-03-03T15:11:50;100941.38;;;11.70;42.04
6144;BME280;3103;49.492;8.474;2023-03-03T15:14:21;100935.28;;;11.63;41.04
6144;BME280;3103;49.492;8.474;2023-03-03T15:16:50;100946.84;;;11.64;40.76
6144;BME280;3103;49.492;8.474;2023-03-03T15:19:31;100942.06;;;11.66;40.99
6144;BME280;3103;49.492;8.474;2023-03-03T15:22:23;100939.38;;;11.77;41.13
6144;BME280;3103;49.492;8.474;2023-03-03T15:27:41;100948.41;;;11.71;40.40
6144;BME280;3103;49.492;8.474;2023-03-03T15:32:50;100945.09;;;11.34;41.28
6144;BME280;3103;49.492;8.474;2023-03-03T15:35:51;100946.78;;;11.05;43.37
6144;BME280;3103;49.492;8.474;2023-03-03T15:38:27;100946.97;;;10.92;43.34
6144;BME280;3103;49.492;8.474;2023-03-03T15:41:11;100939.56;;;10.76;42.71
6144;BME280;3103;49.492;8.474;2023-03-03T15:44:05;100944.19;;;10.68;43.26
6144;BME280;3103;49.492;8.474;2023-03-03T15:49:52;100945.50;;;10.48;44.09
6144;BME280;3103;49.492;8.474;2023-03-03T15:52:40;100947.25;;;10.42;43.62
6144;BME280;3103;49.492;8.474;2023-03-03T15:55:27;100951.72;;;10.30;44.60
6144;BME280;3103;49.492;8.474;2023-03-03T16:03:39;100947.25;;;10.24;44.29
6144;BME280;3103;49.492;8.474;2023-03-03T16:06:18;100949.41;;;10.15;43.89
6144;BME280;3103;49.492;8.474;2023-03-03T16:09:05;100947.47;;;10.22;44.25
6144;BME280;3103;49.492;8.474;2023-03-03T16:11:48;100942.59;;;10.12;44.31
6144;BME280;3103;49.492;8.474;2023-03-03T16:14:31;100944.25;;;10.14;44.70
6144;BME280;3103;49.492;8.474;2023-03-03T16:17:25;100950.88;;;10.11;44.85
6144;BME280;3103;49.492;8.474;2023-03-03T16:22:45;100958.91;;;9.93;44.60
6144;BME280;3103;49.492;8.474;2023-03-03T16:25:35;100963.47;;;9.92;44.14
6144;BME280;3103;49.492;8.474;2023-03-03T16:28:13;100962.31;;;9.81;43.97
6144;BME280;3103;49.492;8.474;2023-03-03T16:33:34;100970.47;;;9.75;43.38
6144;BME280;3103;49.492;8.474;2023-03-03T16:39:21;100981.63;;;9.72;42.56
6144;BME280;3103;49.492;8.474;2023-03-03T16:42:02;100979.59;;;9.67;42.69